createdAt,value
2019-02-25T00:00:37.501Z,11.77
2019-02-25T00:03:09.426Z,13.97
2019-02-25T00:05:39.766Z,12.70
2019-02-25T00:08:10.032Z,12.87
2019-02-25T00:10:40.291Z,11.63
2019-02-25T00:13:10.604Z,13.20
2019-02-25T00:15:40.847Z,12.03
2019-02-25T00:18:11.382Z,11.47
2019-02-25T00:20:41.725Z,12.77
2019-02-25T00:23:13.067Z,11.93
2019-02-25T00:25:43.357Z,10.43
2019-02-25T00:28:13.618Z,12.33
2019-02-25T00:30:44.150Z,12.37
2019-02-25T00:33:14.490Z,13.77
2019-02-25T00:35:45.014Z,13.07
2019-02-25T00:38:15.290Z,13.83
2019-02-25T00:40:45.558Z,12.43
2019-02-25T00:43:15.854Z,13.23
2019-02-25T00:45:46.114Z,10.60
2019-02-25T00:48:16.389Z,12.20
2019-02-25T00:50:46.670Z,12.23
2019-02-25T00:53:16.921Z,11.00
2019-02-25T00:55:47.248Z,13.30
2019-02-25T00:58:17.523Z,13.83
2019-02-25T01:00:47.786Z,12.50
2019-02-25T01:03:18.052Z,12.70
2019-02-25T01:05:48.316Z,12.03
2019-02-25T01:08:18.610Z,11.53
2019-02-25T01:10:48.892Z,11.13
2019-02-25T01:13:19.239Z,11.13
2019-02-25T01:15:49.549Z,12.10
2019-02-25T01:18:19.814Z,11.73
2019-02-25T01:20:50.079Z,11.63
2019-02-25T01:23:20.337Z,12.00
2019-02-25T01:25:50.860Z,12.70
2019-02-25T01:28:22.213Z,12.07
2019-02-25T01:30:52.478Z,11.00
2019-02-25T01:33:22.766Z,10.93
2019-02-25T01:35:53.023Z,10.30
2019-02-25T01:38:24.253Z,12.23
2019-02-25T01:40:54.535Z,11.37
2019-02-25T01:43:25.889Z,10.50
2019-02-25T01:45:56.219Z,11.57
2019-02-25T01:48:26.502Z,11.57
2019-02-25T01:50:56.736Z,11.30
2019-02-25T01:53:27.876Z,10.73
2019-02-25T01:55:58.170Z,12.53
2019-02-25T01:58:28.456Z,12.40
2019-02-25T02:00:58.727Z,11.40
2019-02-25T02:03:29.012Z,10.43
2019-02-25T02:05:59.290Z,9.80
2019-02-25T02:08:29.541Z,10.83
2019-02-25T02:10:59.800Z,10.10
2019-02-25T02:13:30.113Z,10.37
2019-02-25T02:16:01.893Z,9.70
2019-02-25T02:18:32.138Z,10.00
2019-02-25T02:21:02.399Z,11.23
2019-02-25T02:23:34.765Z,11.07
2019-02-25T02:26:05.031Z,9.80
2019-02-25T02:28:35.298Z,11.03
2019-02-25T02:31:05.749Z,10.60
2019-02-25T02:33:36.023Z,9.93
2019-02-25T02:36:06.274Z,10.00
2019-02-25T02:38:36.535Z,11.10
2019-02-25T02:41:06.808Z,11.50
2019-02-25T02:43:37.955Z,10.80
2019-02-25T02:46:14.378Z,9.70
2019-02-25T02:48:50.906Z,10.93
2019-02-25T02:51:21.184Z,9.43
2019-02-25T02:56:27.514Z,10.03
2019-02-25T02:58:57.771Z,9.47
2019-02-25T03:01:28.047Z,9.13
2019-02-25T03:03:58.378Z,9.70
2019-02-25T03:06:28.655Z,9.97
2019-02-25T03:08:59.180Z,8.97
2019-02-25T03:11:29.441Z,9.93
2019-02-25T03:13:59.711Z,10.00
2019-02-25T03:16:30.253Z,10.00
2019-02-25T03:19:00.530Z,10.37
2019-02-25T03:21:30.820Z,11.40
2019-02-25T03:24:01.109Z,9.80
2019-02-25T03:26:31.385Z,8.87
2019-02-25T03:29:03.740Z,10.03
2019-02-25T03:31:34.018Z,10.50
2019-02-25T03:34:04.339Z,9.67
2019-02-25T03:36:34.585Z,9.47
2019-02-25T03:39:06.999Z,10.30
2019-02-25T03:41:37.271Z,11.73
2019-02-25T03:44:08.462Z,10.17
2019-02-25T03:46:38.720Z,9.10
2019-02-25T03:49:09.014Z,10.00
2019-02-25T03:51:39.268Z,10.60
2019-02-25T03:54:09.548Z,10.07
2019-02-25T03:56:39.803Z,10.77
2019-02-25T03:59:10.070Z,10.00
2019-02-25T04:01:40.341Z,9.20
2019-02-25T04:04:10.626Z,10.40
2019-02-25T04:06:40.881Z,10.43
2019-02-25T04:09:11.157Z,11.17
2019-02-25T04:11:41.406Z,11.57
2019-02-25T04:14:11.674Z,10.07
2019-02-25T04:16:42.114Z,9.50
2019-02-25T04:19:12.417Z,10.00
2019-02-25T04:21:42.645Z,10.93
2019-02-25T04:24:12.907Z,9.37
2019-02-25T04:26:43.169Z,9.80
2019-02-25T04:29:13.453Z,10.63
2019-02-25T04:31:43.718Z,9.43
2019-02-25T04:34:14.018Z,10.13
2019-02-25T04:36:44.266Z,10.70
2019-02-25T04:39:14.539Z,10.27
2019-02-25T04:41:44.794Z,10.63
2019-02-25T04:44:15.890Z,10.07
2019-02-25T04:46:46.141Z,9.80
2019-02-25T04:49:16.414Z,11.50
2019-02-25T04:51:46.671Z,11.43
2019-02-25T04:54:16.945Z,11.20
2019-02-25T04:56:47.203Z,9.73
2019-02-25T04:59:17.484Z,9.30
2019-02-25T05:01:47.758Z,9.43
2019-02-25T05:04:18.025Z,9.63
2019-02-25T05:06:48.285Z,9.93
2019-02-25T05:09:18.580Z,10.63
2019-02-25T05:11:48.841Z,11.10
2019-02-25T05:14:19.127Z,10.77
2019-02-25T05:16:49.388Z,10.97
2019-02-25T05:19:19.664Z,9.93
2019-02-25T05:21:49.929Z,8.93
2019-02-25T05:24:20.202Z,10.30
2019-02-25T05:26:50.478Z,9.40
2019-02-25T05:29:20.755Z,11.57
2019-02-25T05:31:51.012Z,12.73
2019-02-25T05:34:21.304Z,11.70
2019-02-25T05:36:51.561Z,9.73
2019-02-25T05:39:21.848Z,10.23
2019-02-25T05:41:52.143Z,10.50
2019-02-25T05:44:23.258Z,11.07
2019-02-25T05:46:53.516Z,11.00
2019-02-25T05:49:24.058Z,12.47
2019-02-25T05:51:54.320Z,11.27
2019-02-25T05:54:24.620Z,12.10
2019-02-25T05:56:54.911Z,11.97
2019-02-25T05:59:25.207Z,11.10
2019-02-25T06:01:55.460Z,11.43
2019-02-25T06:04:25.730Z,11.90
2019-02-25T06:06:55.987Z,12.63
2019-02-25T06:09:26.269Z,12.23
2019-02-25T06:11:56.531Z,12.20
2019-02-25T06:14:26.901Z,12.00
2019-02-25T06:16:57.157Z,12.13
2019-02-25T06:19:27.453Z,12.53
2019-02-25T06:21:57.698Z,13.03
2019-02-25T06:24:29.041Z,12.90
2019-02-25T06:26:59.331Z,12.10
2019-02-25T06:29:29.609Z,13.70
2019-02-25T06:31:59.862Z,12.23
2019-02-25T06:34:30.151Z,13.50
2019-02-25T06:37:00.512Z,12.97
2019-02-25T06:39:30.797Z,12.20
2019-02-25T06:42:01.078Z,13.20
2019-02-25T06:44:32.149Z,11.70
2019-02-25T06:47:02.431Z,12.57
2019-02-25T06:49:32.700Z,12.03
2019-02-25T06:52:02.967Z,12.73
2019-02-25T06:54:33.220Z,13.67
2019-02-25T06:57:03.514Z,13.33
2019-02-25T06:59:33.872Z,12.93
2019-02-25T07:02:04.171Z,12.20
2019-02-25T07:04:37.704Z,13.37
2019-02-25T07:07:18.482Z,13.47
2019-02-25T07:09:51.121Z,14.77
2019-02-25T07:12:25.960Z,12.23
2019-02-25T07:15:00.808Z,12.43
2019-02-25T07:17:35.650Z,11.33
2019-02-25T07:20:17.031Z,12.20
2019-02-25T07:22:57.922Z,14.60
2019-02-25T07:25:29.801Z,13.07
2019-02-25T07:28:07.409Z,12.80
2019-02-25T07:30:55.720Z,12.63
2019-02-25T07:33:33.320Z,12.33
2019-02-25T07:36:07.905Z,13.47
2019-02-25T07:38:42.513Z,14.07
2019-02-25T07:41:14.427Z,14.90
2019-02-25T07:43:55.357Z,15.23
2019-02-25T07:46:37.213Z,13.67
2019-02-25T07:49:23.929Z,12.97
2019-02-25T07:52:02.495Z,13.47
2019-02-25T07:54:34.411Z,14.47
2019-02-25T07:57:06.316Z,12.37
2019-02-25T07:59:39.869Z,13.90
2019-02-25T08:02:14.591Z,13.43
2019-02-25T08:04:46.514Z,13.47
2019-02-25T08:07:24.096Z,14.30
2019-02-25T08:09:59.253Z,13.73
2019-02-25T08:12:49.512Z,13.27
2019-02-25T08:15:30.127Z,13.27
2019-02-25T08:18:04.497Z,14.73
2019-02-25T08:20:36.385Z,13.30
2019-02-25T08:23:14.287Z,13.13
2019-02-25T08:25:54.900Z,13.97
2019-02-25T08:28:29.508Z,14.20
2019-02-25T08:31:01.401Z,15.20
2019-02-25T08:33:49.650Z,15.10
2019-02-25T08:37:01.967Z,15.53
2019-02-25T08:39:42.042Z,15.53
2019-02-25T08:42:22.981Z,16.27
2019-02-25T08:45:11.248Z,15.77
2019-02-25T08:47:49.890Z,16.23
2019-02-25T08:50:21.217Z,17.23
2019-02-25T08:52:51.474Z,17.40
2019-02-25T08:55:21.730Z,16.87
2019-02-25T08:57:52.003Z,18.47
2019-02-25T09:00:22.273Z,21.00
2019-02-25T09:02:52.619Z,17.73
2019-02-25T09:05:22.866Z,18.57
2019-02-25T09:07:53.143Z,19.93
2019-02-25T09:10:23.412Z,18.67
2019-02-25T09:12:53.670Z,19.13
2019-02-25T09:15:23.952Z,18.30
2019-02-25T09:17:53.279Z,18.83
2019-02-25T09:20:23.581Z,19.70
2019-02-25T09:22:53.840Z,19.70
2019-02-25T09:25:24.105Z,21.10
2019-02-25T09:27:54.390Z,19.63
2019-02-25T09:30:24.668Z,18.27
2019-02-25T09:32:54.926Z,19.30
2019-02-25T09:35:25.218Z,19.63
2019-02-25T09:37:55.504Z,19.53
2019-02-25T09:40:25.798Z,20.77
2019-02-25T09:42:56.076Z,20.03
2019-02-25T09:45:26.348Z,18.77
2019-02-25T09:47:56.609Z,20.13
2019-02-25T09:50:26.893Z,21.23
2019-02-25T09:52:57.151Z,21.67
2019-02-25T09:55:27.447Z,21.53
2019-02-25T09:57:57.705Z,19.60
2019-02-25T10:00:27.990Z,22.17
2019-02-25T10:02:58.263Z,23.37
2019-02-25T10:05:28.551Z,24.63
2019-02-25T10:07:58.827Z,23.70
2019-02-25T10:10:29.129Z,21.53
2019-02-25T10:12:59.373Z,22.93
2019-02-25T10:15:29.726Z,24.10
2019-02-25T10:18:00.010Z,23.73
2019-02-25T10:20:30.329Z,23.53
2019-02-25T10:23:00.589Z,24.13
2019-02-25T10:25:30.865Z,23.23
2019-02-25T10:28:01.149Z,20.87
2019-02-25T10:30:31.472Z,21.27
2019-02-25T10:33:01.769Z,20.63
2019-02-25T10:35:33.105Z,22.87
2019-02-25T10:38:03.363Z,18.37
2019-02-25T10:40:33.635Z,16.43
2019-02-25T10:43:03.922Z,20.03
2019-02-25T10:45:35.247Z,19.27
2019-02-25T10:48:07.097Z,15.77
2019-02-25T10:50:38.655Z,17.50
2019-02-25T10:53:10.975Z,16.90
2019-02-25T10:55:48.823Z,16.53
2019-02-25T10:58:18.781Z,17.30
2019-02-25T11:00:49.061Z,14.43
2019-02-25T11:03:19.940Z,17.03
2019-02-25T11:05:51.770Z,14.23
2019-02-25T11:08:24.401Z,18.77
2019-02-25T11:11:02.489Z,18.57
2019-02-25T11:13:34.611Z,14.57
2019-02-25T11:16:04.847Z,14.60
2019-02-25T11:18:35.148Z,10.53
2019-02-25T11:21:06.175Z,15.03
2019-02-25T11:23:37.408Z,12.93
2019-02-25T11:26:09.285Z,10.47
2019-02-25T11:28:41.247Z,14.03
2019-02-25T11:31:12.191Z,10.40
2019-02-25T11:33:42.461Z,14.77
2019-02-25T11:36:14.904Z,12.67
2019-02-25T11:38:44.708Z,12.97
2019-02-25T11:41:14.996Z,15.43
2019-02-25T11:43:46.408Z,15.80
2019-02-25T11:46:17.231Z,13.37
2019-02-25T11:48:47.496Z,15.00
2019-02-25T11:51:17.788Z,15.13
2019-02-25T11:53:48.112Z,12.13
2019-02-25T11:56:18.400Z,13.20
2019-02-25T11:58:48.669Z,11.17
2019-02-25T12:01:18.943Z,10.73
2019-02-25T12:03:49.227Z,11.37
2019-02-25T12:06:19.520Z,9.13
2019-02-25T12:08:49.789Z,9.20
2019-02-25T12:11:20.057Z,8.53
2019-02-25T12:13:50.323Z,9.30
2019-02-25T12:16:21.780Z,9.10
2019-02-25T12:18:52.162Z,9.80
2019-02-25T12:21:22.437Z,11.20
2019-02-25T12:23:53.712Z,10.20
2019-02-25T12:26:23.980Z,9.97
2019-02-25T12:28:54.239Z,9.53
2019-02-25T12:31:24.508Z,8.50
2019-02-25T12:33:54.774Z,8.23
2019-02-25T12:36:25.138Z,9.90
2019-02-25T12:38:55.398Z,10.93
2019-02-25T12:41:27.249Z,8.97
2019-02-25T12:43:57.714Z,9.73
2019-02-25T12:46:27.998Z,9.70
2019-02-25T12:49:00.527Z,10.10
2019-02-25T12:51:30.808Z,9.27
2019-02-25T12:54:01.069Z,10.90
2019-02-25T12:56:31.353Z,9.30
2019-02-25T12:59:01.603Z,7.73
2019-02-25T13:01:31.917Z,7.67
2019-02-25T13:04:02.178Z,8.90
2019-02-25T13:06:32.457Z,7.40
2019-02-25T13:09:02.732Z,7.53
2019-02-25T13:11:34.663Z,6.67
2019-02-25T13:14:04.913Z,6.40
2019-02-25T13:16:35.189Z,9.70
2019-02-25T13:19:05.445Z,9.33
2019-02-25T13:21:35.706Z,8.23
2019-02-25T13:24:07.477Z,7.20
2019-02-25T13:26:39.449Z,4.97
2019-02-25T13:29:09.803Z,7.17
2019-02-25T13:31:40.086Z,5.97
2019-02-25T13:34:10.340Z,6.60
2019-02-25T13:36:40.615Z,6.60
2019-02-25T13:39:10.887Z,5.53
2019-02-25T13:41:41.439Z,7.73
2019-02-25T13:44:11.694Z,5.40
2019-02-25T13:46:43.017Z,7.83
2019-02-25T13:49:14.999Z,9.77
2019-02-25T13:51:45.412Z,7.53
2019-02-25T13:54:17.876Z,6.93
2019-02-25T13:56:49.206Z,8.00
2019-02-25T13:59:19.529Z,8.10
2019-02-25T14:01:49.818Z,8.47
2019-02-25T14:34:09.477Z,7.30
2019-02-25T14:36:39.740Z,8.03
2019-02-25T14:39:18.535Z,6.57
2019-02-25T14:46:04.827Z,5.90
2019-02-25T14:48:36.433Z,4.90
2019-02-25T14:51:08.746Z,4.07
2019-02-25T14:53:39.169Z,3.43
2019-02-25T14:56:10.146Z,4.10
2019-02-25T14:58:41.140Z,4.97
2019-02-25T15:01:13.979Z,3.60
2019-02-25T15:03:44.401Z,3.10
2019-02-25T15:06:14.639Z,4.30
2019-02-25T15:08:44.955Z,3.20
2019-02-25T15:11:15.304Z,3.80
2019-02-25T15:13:45.808Z,3.83
2019-02-25T15:16:16.099Z,3.53
2019-02-25T15:18:47.754Z,4.30
2019-02-25T15:21:18.033Z,4.33
2019-02-25T15:23:48.350Z,3.90
2019-02-25T15:26:19.868Z,4.50
2019-02-25T15:28:53.654Z,5.47
2019-02-25T15:31:23.387Z,4.93
2019-02-25T15:33:53.661Z,4.93
2019-02-25T15:36:24.749Z,5.87
2019-02-25T15:38:56.224Z,6.40
2019-02-25T15:41:26.503Z,6.00
2019-02-25T15:44:40.371Z,6.13
2019-02-25T15:47:12.862Z,7.37
2019-02-25T15:49:43.355Z,8.10
2019-02-25T15:52:16.552Z,7.47
2019-02-25T15:54:45.731Z,7.07
2019-02-25T15:57:15.971Z,7.50
2019-02-25T15:59:46.306Z,7.30
2019-02-25T16:02:16.627Z,6.43
2019-02-25T16:04:48.881Z,5.97
2019-02-25T16:07:19.295Z,7.40
2019-02-25T16:09:49.536Z,8.97
2019-02-25T16:12:23.193Z,9.13
2019-02-25T16:14:53.118Z,7.20
2019-02-25T16:17:24.347Z,6.93
2019-02-25T16:19:55.065Z,6.30
2019-02-25T16:22:26.234Z,6.60
2019-02-25T16:24:59.046Z,7.63
2019-02-25T16:27:30.644Z,8.73
2019-02-25T16:30:02.917Z,9.27
2019-02-25T16:32:34.041Z,9.73
2019-02-25T16:35:07.252Z,9.90
2019-02-25T16:37:40.038Z,11.53
2019-02-25T16:40:18.250Z,10.57
2019-02-25T16:46:16.201Z,11.30
2019-02-25T16:48:48.379Z,11.23
2019-02-25T16:51:19.063Z,10.87
2019-02-25T16:53:51.849Z,9.70
2019-02-25T16:56:22.147Z,10.93
2019-02-25T16:58:54.329Z,13.30
2019-02-25T17:01:26.192Z,11.67
2019-02-25T17:03:57.154Z,11.13
2019-02-25T17:06:30.388Z,10.60
2019-02-25T17:09:02.208Z,12.30
2019-02-25T17:11:35.305Z,10.97
2019-02-25T17:14:06.125Z,10.37
2019-02-25T17:16:37.405Z,11.17
2019-02-25T17:19:08.864Z,11.97
2019-02-25T17:21:42.962Z,11.90
2019-02-25T17:24:12.669Z,10.63
2019-02-25T17:26:43.306Z,10.27
2019-02-25T17:29:13.733Z,10.93
2019-02-25T17:31:44.027Z,10.47
2019-02-25T17:34:16.484Z,10.13
2019-02-25T17:36:50.112Z,11.23
2019-02-25T17:39:20.178Z,9.50
2019-02-25T17:41:50.429Z,9.70
2019-02-25T17:44:23.378Z,8.77
2019-02-25T17:46:52.722Z,9.97
2019-02-25T17:49:26.126Z,10.37
2019-02-25T17:51:59.798Z,7.90
2019-02-25T17:54:33.350Z,8.37
2019-02-25T17:57:04.955Z,10.80
2019-02-25T17:59:35.602Z,9.60
2019-02-25T18:02:06.672Z,11.67
2019-02-25T18:04:37.901Z,9.40
2019-02-25T18:07:08.196Z,9.77
2019-02-25T18:09:40.140Z,10.57
2019-02-25T18:12:10.804Z,9.47
2019-02-25T18:14:43.078Z,10.17
2019-02-25T18:17:15.360Z,10.97
2019-02-25T18:19:47.667Z,10.73
2019-02-25T18:22:17.970Z,11.27
2019-02-25T18:24:48.509Z,10.70
2019-02-25T18:27:18.844Z,11.93
2019-02-25T18:29:50.382Z,12.20
2019-02-25T18:32:21.076Z,10.43
2019-02-25T18:34:52.132Z,10.20
2019-02-25T18:37:24.878Z,11.20
2019-02-25T18:39:56.524Z,10.87
2019-02-25T18:42:27.284Z,9.43
2019-02-25T18:44:58.711Z,10.73
2019-02-25T18:47:28.953Z,11.57
2019-02-25T18:50:00.951Z,9.53
2019-02-25T18:52:38.523Z,11.37
2019-02-25T18:55:12.010Z,12.47
2019-02-25T18:57:43.830Z,14.00
2019-02-25T19:00:24.097Z,11.50
2019-02-25T19:02:56.064Z,16.20
2019-02-25T19:05:27.176Z,16.20
2019-02-25T19:07:58.552Z,13.23
2019-02-25T19:10:28.951Z,12.50
2019-02-25T19:13:01.007Z,12.27
2019-02-25T19:15:31.224Z,11.33
2019-02-25T19:18:01.451Z,13.40
2019-02-25T19:20:32.811Z,11.80
2019-02-25T19:23:04.859Z,12.50
2019-02-25T19:25:36.143Z,11.63
2019-02-25T19:28:06.703Z,10.73
2019-02-25T19:30:37.042Z,9.77
2019-02-25T19:33:11.397Z,10.97
2019-02-25T19:35:40.981Z,12.47
2019-02-25T19:38:13.433Z,10.97
2019-02-25T19:40:45.891Z,10.07
2019-02-25T19:43:15.682Z,9.80
2019-02-25T19:45:46.269Z,10.63
2019-02-25T19:48:19.868Z,9.97
2019-02-25T19:50:53.894Z,10.13
2019-02-25T19:53:23.736Z,10.93
2019-02-25T19:55:54.611Z,8.47
2019-02-25T19:58:26.783Z,9.70
2019-02-25T20:01:01.016Z,8.70
2019-02-25T20:03:31.005Z,10.97
2019-02-25T20:06:02.087Z,11.43
2019-02-25T20:08:33.457Z,9.27
2019-02-25T20:11:04.511Z,8.77
2019-02-25T20:13:34.849Z,7.87
2019-02-25T20:16:07.915Z,9.00
2019-02-25T20:18:40.266Z,7.57
2019-02-25T20:21:13.915Z,8.80
2019-02-25T20:23:49.189Z,7.03
2019-02-25T20:26:22.335Z,8.53
2019-02-25T20:28:52.937Z,7.73
2019-02-25T20:31:23.460Z,10.13
2019-02-25T20:33:55.283Z,6.13
2019-02-25T20:36:26.334Z,8.53
2019-02-25T20:46:40.863Z,10.20
2019-02-25T20:49:16.114Z,6.60
2019-02-25T20:51:45.513Z,6.60
2019-02-25T20:54:18.506Z,7.43
2019-02-25T20:56:51.195Z,7.37
2019-02-25T20:59:24.006Z,8.00
2019-02-25T21:01:56.787Z,8.10
2019-02-25T21:04:28.660Z,7.17
2019-02-25T21:07:02.256Z,8.27
2019-02-25T21:09:34.053Z,7.93
2019-02-25T21:12:05.730Z,8.03
2019-02-25T21:14:37.888Z,7.97
2019-02-25T21:17:08.035Z,6.60
2019-02-25T21:19:39.941Z,7.53
2019-02-25T21:22:10.359Z,8.17
2019-02-25T21:24:40.693Z,6.60
2019-02-25T21:27:11.003Z,7.10
2019-02-25T21:29:41.338Z,7.40
2019-02-25T21:32:15.303Z,7.90
2019-02-25T21:34:46.192Z,6.37
2019-02-25T21:37:15.599Z,6.60
2019-02-25T21:39:46.709Z,8.30
2019-02-25T21:42:19.197Z,7.33
2019-02-25T21:44:52.423Z,9.23
2019-02-25T21:47:24.301Z,7.87
2019-02-25T21:49:59.198Z,6.97
2019-02-25T21:52:32.808Z,8.73
2019-02-25T21:55:06.526Z,7.97
2019-02-25T21:57:37.697Z,8.73
2019-02-25T22:00:11.314Z,8.53
2019-02-25T22:02:44.035Z,7.03
2019-02-25T22:05:16.698Z,6.67
2019-02-25T22:07:49.914Z,6.70
2019-02-25T22:10:19.659Z,7.20
2019-02-25T22:12:49.978Z,7.03
2019-02-25T22:15:22.434Z,8.67
2019-02-25T22:17:53.454Z,6.97
2019-02-25T22:20:25.156Z,6.53
2019-02-25T22:22:57.458Z,6.20
2019-02-25T22:25:29.035Z,7.10
2019-02-25T22:28:01.126Z,6.73
2019-02-25T22:30:32.097Z,6.70
2019-02-25T22:33:04.463Z,7.10
2019-02-25T22:35:37.391Z,15.97
2019-02-25T22:38:06.397Z,9.40
2019-02-25T22:40:38.838Z,7.47
2019-02-25T22:43:10.049Z,6.93
2019-02-25T22:45:41.998Z,6.40
2019-02-25T22:48:14.069Z,9.13
2019-02-25T22:50:44.498Z,7.37
2019-02-25T22:53:14.784Z,5.60
2019-02-25T22:55:47.305Z,6.63
2019-02-25T22:58:18.736Z,6.40
2019-02-25T23:00:51.883Z,6.77
2019-02-25T23:03:24.904Z,6.13
2019-02-25T23:05:55.219Z,7.10
2019-02-25T23:08:26.101Z,6.60
2019-02-25T23:10:56.475Z,6.20
2019-02-25T23:13:29.323Z,8.43
2019-02-25T23:15:58.709Z,7.63
2019-02-25T23:18:28.959Z,5.90
2019-02-25T23:24:59.043Z,6.70
2019-02-25T23:27:30.120Z,6.70
2019-02-25T23:30:01.512Z,7.03
2019-02-25T23:32:31.942Z,6.67
2019-02-25T23:35:02.275Z,7.03
2019-02-25T23:37:32.653Z,6.90
2019-02-25T23:40:05.142Z,6.77
2019-02-25T23:42:37.307Z,6.40
2019-02-25T23:45:13.452Z,6.30
2019-02-25T23:47:44.778Z,5.33
2019-02-25T23:50:15.318Z,6.63
2019-02-25T23:52:47.197Z,6.33
2019-02-25T23:55:19.627Z,7.50
2019-02-25T23:57:49.545Z,6.70
